createdAt,value
2022-09-07T00:03:57.434Z,100.00
2022-09-07T00:08:59.030Z,100.00
2022-09-07T00:14:00.684Z,100.00
2022-09-07T00:19:03.837Z,100.00
2022-09-07T00:24:05.595Z,100.00
2022-09-07T00:29:07.997Z,100.00
2022-09-07T00:34:09.591Z,100.00
2022-09-07T00:39:11.147Z,100.00
2022-09-07T00:44:43.752Z,100.00
2022-09-07T00:49:50.485Z,100.00
2022-09-07T00:54:56.482Z,100.00
2022-09-07T00:59:59.194Z,100.00
2022-09-07T01:05:09.504Z,100.00
2022-09-07T01:10:11.593Z,100.00
2022-09-07T01:15:13.158Z,100.00
2022-09-07T01:20:55.880Z,100.00
2022-09-07T01:26:24.623Z,100.00
2022-09-07T01:31:37.076Z,100.00
2022-09-07T01:37:04.223Z,100.00
2022-09-07T01:42:10.567Z,100.00
2022-09-07T01:47:24.343Z,100.00
2022-09-07T01:52:44.335Z,100.00
2022-09-07T01:57:48.451Z,100.00
2022-09-07T02:03:14.695Z,100.00
2022-09-07T02:08:25.565Z,100.00
2022-09-07T02:13:47.795Z,100.00
2022-09-07T02:18:54.995Z,100.00
2022-09-07T02:24:06.484Z,100.00
2022-09-07T02:29:08.327Z,100.00
2022-09-07T02:34:10.361Z,100.00
2022-09-07T02:39:11.911Z,100.00
2022-09-07T02:44:20.281Z,100.00
2022-09-07T02:49:36.758Z,100.00
2022-09-07T02:55:09.473Z,100.00
2022-09-07T03:00:15.394Z,100.00
2022-09-07T03:05:24.610Z,100.00
2022-09-07T03:10:27.171Z,100.00
2022-09-07T03:15:28.972Z,100.00
2022-09-07T03:20:30.671Z,100.00
2022-09-07T03:25:32.395Z,100.00
2022-09-07T03:30:34.057Z,100.00
2022-09-07T03:35:35.622Z,100.00
2022-09-07T03:40:37.456Z,100.00
2022-09-07T03:45:39.064Z,100.00
2022-09-07T03:50:40.688Z,100.00
2022-09-07T03:55:42.266Z,100.00
2022-09-07T04:00:43.808Z,100.00
2022-09-07T04:05:45.459Z,100.00
2022-09-07T04:10:47.031Z,100.00
2022-09-07T04:15:52.128Z,100.00
2022-09-07T04:20:58.627Z,100.00
2022-09-07T04:26:00.259Z,100.00
2022-09-07T04:31:02.414Z,100.00
2022-09-07T04:36:04.851Z,100.00
2022-09-07T04:41:10.074Z,100.00
2022-09-07T04:46:26.533Z,100.00
2022-09-07T04:51:30.276Z,100.00
2022-09-07T04:56:32.338Z,100.00
2022-09-07T05:01:34.423Z,100.00
2022-09-07T05:06:36.404Z,100.00
2022-09-07T05:11:38.040Z,100.00
2022-09-07T05:16:39.651Z,100.00
2022-09-07T05:21:41.524Z,100.00
2022-09-07T05:26:43.245Z,100.00
2022-09-07T05:31:45.209Z,100.00
2022-09-07T05:36:46.743Z,100.00
2022-09-07T05:41:48.362Z,100.00
2022-09-07T05:46:51.684Z,100.00
2022-09-07T05:51:53.362Z,100.00
2022-09-07T05:56:54.975Z,100.00
2022-09-07T06:01:56.782Z,100.00
2022-09-07T06:07:20.660Z,100.00
2022-09-07T06:12:20.202Z,100.00
2022-09-07T06:17:21.933Z,100.00
2022-09-07T06:22:26.675Z,100.00
2022-09-07T06:27:30.689Z,100.00
2022-09-07T06:32:43.229Z,100.00
2022-09-07T06:37:45.255Z,100.00
2022-09-07T06:42:46.827Z,100.00
2022-09-07T06:47:53.839Z,100.00
2022-09-07T06:58:17.183Z,95.71
2022-09-07T07:03:19.481Z,94.12
2022-09-07T07:08:23.106Z,93.34
2022-09-07T07:13:24.887Z,90.89
2022-09-07T07:18:26.457Z,89.91
2022-09-07T07:23:28.082Z,88.33
2022-09-07T07:33:53.035Z,85.87
2022-09-07T07:44:00.534Z,83.66
2022-09-07T07:49:02.332Z,81.99
2022-09-07T07:54:04.001Z,81.62
2022-09-07T07:59:05.670Z,80.50
2022-09-07T08:04:07.184Z,79.00
2022-09-07T08:09:08.711Z,79.06
2022-09-07T08:14:10.406Z,78.77
2022-09-07T08:19:12.208Z,78.29
2022-09-07T08:24:13.764Z,75.96
2022-09-07T08:29:15.520Z,76.21
2022-09-07T08:34:17.236Z,75.17
2022-09-07T08:39:18.837Z,74.88
2022-09-07T08:44:39.139Z,74.93
2022-09-07T08:49:43.838Z,73.75
2022-09-07T08:54:58.298Z,73.44
2022-09-07T09:00:11.623Z,71.82
2022-09-07T09:05:35.840Z,72.70
2022-09-07T09:10:56.540Z,71.74
2022-09-07T09:16:18.257Z,71.56
2022-09-07T09:21:20.559Z,71.22
2022-09-07T09:26:27.832Z,70.61
2022-09-07T09:31:35.991Z,70.04
2022-09-07T09:36:49.755Z,70.00
2022-09-07T09:41:51.731Z,68.68
2022-09-07T09:52:44.956Z,66.96
2022-09-07T10:08:54.688Z,67.01
2022-09-07T10:13:57.898Z,66.21
2022-09-07T10:19:01.217Z,65.02
2022-09-07T10:24:06.142Z,63.72
2022-09-07T10:29:14.868Z,63.58
2022-09-07T10:34:49.036Z,63.32
2022-09-07T10:47:01.231Z,62.27
2022-09-07T10:52:08.777Z,62.04
2022-09-07T10:57:49.354Z,60.47
2022-09-07T11:03:27.355Z,59.75
2022-09-07T11:09:17.586Z,59.49
2022-09-07T11:14:22.311Z,58.92
2022-09-07T11:19:49.825Z,58.18
2022-09-07T11:30:35.844Z,57.14
2022-09-07T11:35:55.770Z,56.21
2022-09-07T11:41:06.395Z,56.33
2022-09-07T11:46:18.789Z,54.71
2022-09-07T11:52:05.081Z,54.75
2022-09-07T11:57:15.822Z,54.73
2022-09-07T12:02:57.616Z,53.28
2022-09-07T12:08:22.092Z,53.09
2022-09-07T12:13:47.992Z,51.50
2022-09-07T12:19:10.788Z,51.70
2022-09-07T12:24:34.020Z,51.15
2022-09-07T12:29:35.986Z,52.20
2022-09-07T12:34:52.437Z,52.43
2022-09-07T12:40:32.140Z,51.43
2022-09-07T12:45:33.617Z,52.63
2022-09-07T12:50:42.242Z,53.44
2022-09-07T12:56:16.723Z,51.28
2022-09-07T13:01:46.247Z,52.78
2022-09-07T13:07:17.312Z,52.97
2022-09-07T13:17:57.080Z,53.68
2022-09-07T13:23:25.454Z,51.66
2022-09-07T13:28:42.424Z,52.03
2022-09-07T13:33:50.369Z,50.94
2022-09-07T13:38:53.934Z,51.51
2022-09-07T13:44:01.186Z,51.27
2022-09-07T13:49:23.530Z,50.14
2022-09-07T13:54:44.179Z,49.50
2022-09-07T13:59:50.283Z,50.05
2022-09-07T14:04:54.901Z,48.98
2022-09-07T14:10:21.018Z,49.69
2022-09-07T14:15:25.532Z,48.97
2022-09-07T14:20:28.180Z,49.15
2022-09-07T14:25:30.120Z,48.46
2022-09-07T14:30:33.472Z,48.45
2022-09-07T14:35:38.455Z,47.58
2022-09-07T14:40:40.325Z,47.59
2022-09-07T14:45:41.947Z,47.95
2022-09-07T14:51:05.515Z,47.54
2022-09-07T14:56:10.891Z,47.90
2022-09-07T15:12:36.434Z,48.07
2022-09-07T15:17:43.638Z,48.17
2022-09-07T15:22:45.948Z,47.67
2022-09-07T15:27:47.713Z,47.78
2022-09-07T15:32:49.502Z,47.80
2022-09-07T15:38:59.555Z,48.80
2022-09-07T15:43:20.418Z,48.84
2022-09-07T15:48:27.062Z,49.42
2022-09-07T15:58:55.923Z,50.21
2022-09-07T16:03:58.761Z,50.33
2022-09-07T16:09:00.438Z,51.19
2022-09-07T16:14:03.498Z,52.89
2022-09-07T16:19:07.325Z,55.25
2022-09-07T16:24:09.208Z,54.74
2022-09-07T16:29:10.921Z,53.98
2022-09-07T16:34:14.102Z,54.21
2022-09-07T16:39:16.154Z,54.55
2022-09-07T16:44:17.857Z,55.21
2022-09-07T16:49:19.685Z,55.03
2022-09-07T16:54:21.392Z,54.74
2022-09-07T16:59:26.662Z,55.40
2022-09-07T17:04:29.077Z,55.17
2022-09-07T17:09:30.694Z,55.84
2022-09-07T17:14:32.670Z,55.96
2022-09-07T17:19:34.544Z,56.31
2022-09-07T17:24:36.189Z,56.38
2022-09-07T17:29:37.843Z,57.04
2022-09-07T17:34:39.383Z,57.16
2022-09-07T17:39:41.073Z,57.31
2022-09-07T17:44:42.708Z,57.97
2022-09-07T17:49:44.352Z,58.09
2022-09-07T17:54:45.854Z,59.63
2022-09-07T18:05:11.468Z,63.02
2022-09-07T18:10:13.107Z,65.62
2022-09-07T18:15:14.802Z,67.58
2022-09-07T18:20:16.548Z,70.56
2022-09-07T18:25:18.104Z,72.78
2022-09-07T18:30:47.475Z,75.85
2022-09-07T18:35:49.054Z,76.59
2022-09-07T18:41:00.140Z,78.34
2022-09-07T18:46:08.532Z,78.89
2022-09-07T18:51:10.783Z,80.13
2022-09-07T18:56:15.038Z,81.76
2022-09-07T19:01:18.613Z,82.51
2022-09-07T19:06:20.351Z,83.74
2022-09-07T19:11:24.743Z,85.40
2022-09-07T19:16:27.902Z,85.60
2022-09-07T19:21:33.011Z,85.75
2022-09-07T19:26:37.229Z,86.18
2022-09-07T19:31:38.760Z,86.06
2022-09-07T19:36:40.762Z,85.90
2022-09-07T19:41:45.034Z,87.38
2022-09-07T19:46:46.589Z,88.10
2022-09-07T19:51:51.822Z,89.27
2022-09-07T19:56:53.380Z,90.46
2022-09-07T20:01:55.023Z,90.49
2022-09-07T20:06:56.574Z,90.14
2022-09-07T20:11:58.261Z,89.90
2022-09-07T20:16:59.896Z,89.85
2022-09-07T20:22:01.580Z,89.98
2022-09-07T20:27:03.178Z,89.95
2022-09-07T20:32:04.778Z,88.90
2022-09-07T20:37:06.382Z,88.49
2022-09-07T20:42:07.956Z,88.31
2022-09-07T20:47:11.706Z,88.19
2022-09-07T20:52:13.212Z,87.71
2022-09-07T20:57:14.703Z,87.67
2022-09-07T21:02:16.266Z,86.49
2022-09-07T21:07:17.847Z,86.23
2022-09-07T21:12:19.590Z,85.90
2022-09-07T21:17:21.187Z,85.64
2022-09-07T21:22:22.749Z,85.00
2022-09-07T21:27:24.290Z,84.55
2022-09-07T21:32:25.860Z,83.79
2022-09-07T21:37:27.366Z,83.48
2022-09-07T21:42:29.008Z,83.74
2022-09-07T21:47:30.519Z,83.89
2022-09-07T21:52:32.034Z,83.07
2022-09-07T21:57:33.555Z,82.59
2022-09-07T22:02:35.164Z,82.97
2022-09-07T22:07:36.670Z,83.76
2022-09-07T22:12:38.209Z,83.62
2022-09-07T22:17:42.310Z,84.29
2022-09-07T22:22:47.281Z,84.28
2022-09-07T22:27:48.778Z,85.02
2022-09-07T22:32:51.605Z,85.21
2022-09-07T22:37:53.111Z,86.12
2022-09-07T22:42:54.612Z,88.95
2022-09-07T22:47:58.226Z,90.96
2022-09-07T22:52:59.748Z,91.82
2022-09-07T22:58:01.243Z,92.55
2022-09-07T23:03:03.790Z,92.59
2022-09-07T23:08:05.367Z,93.18
2022-09-07T23:13:08.931Z,93.79
2022-09-07T23:18:19.053Z,94.02
2022-09-07T23:23:20.599Z,94.22
2022-09-07T23:28:22.098Z,94.25
2022-09-07T23:33:24.194Z,94.69
2022-09-07T23:38:26.278Z,95.10
2022-09-07T23:43:30.085Z,95.12
2022-09-07T23:48:31.715Z,94.95
2022-09-07T23:53:33.352Z,95.69
2022-09-07T23:58:35.074Z,96.30
